Time;durP1;ratioP1;P1;durP2;ratioP2;P2;SDS_P1;SDS_P2;PMS_P1;PMS_P2;Temp;Humidity;BMP_temperature;BMP_pressure;BME280_temperature;BME280_humidity;BME280_pressure;Samples;Min_cycle;Max_cycle;Signal;HPM_P1;HPM_P2
2022/01/07 00:07:36;;;;;;;53.50;16.40;;;;;;;-1.23;88.11;100476.97;741476;1153;114745;-73
2022/01/07 00:23:13;;;;;;;21.05;8.08;;;;;;;-1.23;88.20;100487.27;741521;1155;114891;-73
2022/01/07 00:54:57;;;;;;;61.93;22.85;;;;;;;-1.48;88.33;100509.59;740023;1157;114649;-74
2022/01/07 01:10:01;;;;;;;325.75;82.93;;;;;;;-1.63;89.36;100511.80;739702;1156;114359;-74
2022/01/07 01:25:05;;;;;;;202.80;52.50;;;;;;;-1.70;89.44;100500.88;739870;1154;114041;-74
2022/01/07 01:40:09;;;;;;;39.55;14.33;;;;;;;-1.78;89.64;100522.59;740575;1155;113957;-74
2022/01/07 01:55:13;;;;;;;19.97;8.40;;;;;;;-1.80;89.70;100534.68;740520;1155;114363;-73
2022/01/07 02:10:16;;;;;;;17.45;6.15;;;;;;;-1.88;89.93;100528.03;739534;1162;115577;-73
2022/01/07 02:25:22;;;;;;;16.93;5.97;;;;;;;-1.85;90.98;100532.23;739421;1154;113744;-73
2022/01/07 02:40:25;;;;;;;14.93;6.30;;;;;;;-1.96;90.93;100519.73;739743;1153;113961;-73
2022/01/07 02:55:27;;;;;;;17.05;6.30;;;;;;;-1.97;90.98;100524.94;739590;1154;113782;-72
2022/01/07 03:10:30;;;;;;;13.85;6.43;;;;;;;-1.95;91.01;100513.71;740156;1155;113627;-73
2022/01/07 03:25:32;;;;;;;13.58;7.35;;;;;;;-1.99;91.61;100508.70;739627;1155;113831;-73
2022/01/07 03:40:35;;;;;;;14.08;5.43;;;;;;;-2.00;91.04;100502.73;740647;1157;113770;-73
2022/01/07 03:55:37;;;;;;;32.70;10.10;;;;;;;-1.96;90.93;100512.02;741092;1162;114260;-75
2022/01/07 04:10:40;;;;;;;12.60;5.48;;;;;;;-2.03;90.82;100497.70;740461;1155;114507;-76
2022/01/07 04:25:50;;;;;;;13.10;5.03;;;;;;;-2.18;90.62;100481.88;739964;1154;113835;-74
2022/01/07 04:40:55;;;;;;;8.97;3.83;;;;;;;-2.28;90.80;100483.05;739909;1154;113866;-75
2022/01/07 04:55:59;;;;;;;16.75;5.75;;;;;;;-2.29;91.13;100476.22;739819;1154;113664;-75
2022/01/07 05:11:21;;;;;;;13.38;5.63;;;;;;;-2.26;91.16;100481.25;739643;1154;113649;-74
2022/01/07 05:26:40;;;;;;;22.60;7.40;;;;;;;-2.26;91.52;100465.00;739927;1155;113818;-75
2022/01/07 05:41:57;;;;;;;18.10;7.93;;;;;;;-2.20;92.48;100472.53;740942;1155;113800;-75
2022/01/07 05:56:59;;;;;;;;;;;;;;;-1.96;92.95;100488.88;740754;1155;113883;-75
2022/01/07 06:12:02;;;;;;;23.02;9.58;;;;;;;-1.69;93.67;100470.83;739527;1155;99929;-76
2022/01/07 06:27:05;;;;;;;286.95;166.73;;;;;;;-1.24;94.80;100470.13;739495;1155;113522;-75
2022/01/07 06:42:08;;;;;;;70.85;33.85;;;;;;;-0.95;95.35;100483.69;739202;1158;114442;-75
2022/01/07 06:57:10;;;;;;;61.03;25.73;;;;;;;-0.81;97.25;100487.48;740290;1158;113978;-75
2022/01/07 07:12:13;;;;;;;49.40;16.33;;;;;;;-0.64;98.59;100477.36;739249;1155;114245;-75
2022/01/07 07:27:15;;;;;;;64.75;21.00;;;;;;;-0.34;98.01;100464.19;740165;1155;115225;-73
2022/01/07 07:42:18;;;;;;;50.93;20.35;;;;;;;-0.20;99.46;100461.90;739871;1162;113864;-78
2022/01/07 07:57:20;;;;;;;49.93;17.30;;;;;;;-0.19;100.00;100450.66;740448;1158;115503;-77
2022/01/07 08:12:49;;;;;;;53.73;18.07;;;;;;;0.08;100.00;100460.77;741100;1162;114591;-78
2022/01/07 08:27:48;;;;;;;46.27;18.33;;;;;;;0.13;100.00;100479.47;740692;1154;114312;-77
2022/01/07 08:42:54;;;;;;;70.93;25.23;;;;;;;0.32;100.00;100473.54;739937;1162;114561;-74
2022/01/07 08:58:40;;;;;;;66.33;25.23;;;;;;;0.59;100.00;100475.83;741524;1162;27379;-74
2022/01/07 09:13:50;;;;;;;71.05;23.75;;;;;;;0.69;100.00;100453.02;739875;1157;115215;-74
2022/01/07 09:28:53;;;;;;;108.00;37.33;;;;;;;0.86;100.00;100457.44;740912;1155;115136;-75
2022/01/07 09:43:56;;;;;;;84.67;31.43;;;;;;;0.96;100.00;100459.56;740858;1157;114774;-74
2022/01/07 09:58:58;;;;;;;75.63;28.78;;;;;;;0.98;100.00;100451.73;740896;1155;113963;-73
2022/01/07 10:14:16;;;;;;;66.45;29.35;;;;;;;1.23;100.00;100459.20;739984;1162;113559;-74
2022/01/07 10:29:31;;;;;;;56.73;26.70;;;;;;;1.62;100.00;100454.80;740737;1155;114958;-76
2022/01/07 10:45:00;;;;;;;54.73;31.00;;;;;;;2.33;100.00;100439.19;740565;1154;113536;-75
2022/01/07 11:00:15;;;;;;;35.18;16.53;;;;;;;2.52;99.48;100424.46;740738;1155;113806;-75
2022/01/07 11:15:18;;;;;;;34.60;16.70;;;;;;;2.57;100.00;100412.11;740546;1155;114096;-77
2022/01/07 11:30:28;;;;;;;29.10;15.13;;;;;;;2.34;99.01;100408.97;740601;1162;113700;-77
2022/01/07 11:45:34;;;;;;;46.55;21.60;;;;;;;2.49;99.26;100382.28;740518;1154;113559;-76
2022/01/07 12:01:04;;;;;;;31.38;14.15;;;;;;;2.62;98.26;100384.22;741245;1155;113730;-76
2022/01/07 12:16:07;;;;;;;29.93;14.75;;;;;;;2.93;97.02;100377.36;741545;1155;113604;-74
2022/01/07 12:31:51;;;;;;;32.60;13.15;;;;;;;4.40;96.01;100379.36;741097;1156;113670;-74
2022/01/07 12:46:57;;;;;;;36.98;23.75;;;;;;;3.79;93.11;100372.53;740213;1154;113519;-77
2022/01/07 13:02:01;;;;;;;29.97;17.23;;;;;;;3.40;92.52;100373.06;740551;1154;114704;-78
2022/01/07 13:17:10;;;;;;;65.20;25.10;;;;;;;3.30;91.76;100377.95;740415;1155;113364;-74
2022/01/07 13:32:20;;;;;;;42.03;17.68;;;;;;;3.22;90.42;100367.14;741744;1154;113713;-75
2022/01/07 13:47:35;;;;;;;146.80;59.95;;;;;;;3.09;91.04;100354.88;740241;1155;113715;-74
2022/01/07 14:02:37;;;;;;;79.88;33.45;;;;;;;2.79;89.69;100340.09;740358;1155;114617;-76
2022/01/07 14:17:42;;;;;;;51.93;25.15;;;;;;;2.59;89.80;100327.41;740364;1154;113600;-76
2022/01/07 14:32:51;;;;;;;73.07;29.70;;;;;;;2.38;89.24;100312.09;740428;1154;115052;-77
2022/01/07 14:48:14;;;;;;;232.60;76.98;;;;;;;2.10;89.81;100317.87;740881;1157;113551;-78
2022/01/07 15:03:16;;;;;;;149.60;45.80;;;;;;;1.88;90.08;100305.23;740778;1157;114160;-75
2022/01/07 15:18:19;;;;;;;104.50;28.98;;;;;;;1.78;89.69;100308.30;740995;1158;114244;-73
2022/01/07 15:33:22;;;;;;;64.03;24.03;;;;;;;1.87;89.13;100301.79;739802;1157;114226;-74
2022/01/07 15:48:25;;;;;;;57.73;19.88;;;;;;;1.81;89.38;100295.19;740573;1162;114024;-76
2022/01/07 16:03:27;;;;;;;36.50;14.83;;;;;;;1.79;89.01;100285.83;740836;1162;113559;-77
2022/01/07 16:18:29;;;;;;;67.50;28.75;;;;;;;1.78;88.57;100287.59;740872;1162;115439;-79
2022/01/07 16:33:31;;;;;;;39.43;18.50;;;;;;;1.79;87.95;100298.77;740292;1155;113516;-80
2022/01/07 16:48:34;;;;;;;27.73;13.15;;;;;;;1.74;87.81;100278.33;740507;1155;113900;-77
2022/01/07 17:03:37;;;;;;;51.18;18.55;;;;;;;1.76;88.22;100273.06;740446;1158;113569;-78
2022/01/07 17:18:41;;;;;;;38.05;16.33;;;;;;;1.60;88.03;100273.02;740650;1155;113732;-79
2022/01/07 17:33:43;;;;;;;50.50;22.05;;;;;;;1.56;87.82;100246.47;740503;1156;113835;-77
2022/01/07 17:48:45;;;;;;;197.00;62.68;;;;;;;1.46;87.69;100245.27;741081;1155;113714;-77
2022/01/07 18:03:48;;;;;;;716.35;231.15;;;;;;;1.30;87.83;100242.62;740633;1157;113966;-75
2022/01/07 18:18:50;;;;;;;102.07;40.57;;;;;;;1.13;87.45;100239.11;740276;1162;114663;-73
2022/01/07 18:33:55;;;;;;;57.90;22.25;;;;;;;1.02;87.48;100236.23;740537;1154;114439;-75
2022/01/07 18:48:57;;;;;;;65.20;27.18;;;;;;;0.94;87.48;100233.20;740838;1155;113793;-74
2022/01/07 19:04:00;;;;;;;74.08;27.75;;;;;;;0.83;87.42;100237.13;740692;1162;113864;-73
2022/01/07 19:19:03;;;;;;;169.83;62.05;;;;;;;0.69;86.78;100221.46;740648;1158;114991;-71
2022/01/07 19:34:05;;;;;;;59.23;21.50;;;;;;;0.62;86.21;100222.64;740617;1162;113786;-75
2022/01/07 19:49:12;;;;;;;74.43;21.48;;;;;;;0.59;86.48;100202.15;740903;1155;114223;-74
2022/01/07 20:04:14;;;;;;;55.75;19.35;;;;;;;0.54;87.11;100181.73;739905;1162;113636;-72
2022/01/07 20:19:22;;;;;;;33.45;13.98;;;;;;;0.58;87.04;100195.30;741055;1158;114345;-73
2022/01/07 20:34:24;;;;;;;41.18;19.43;;;;;;;0.72;86.49;100184.33;740468;1158;113669;-75
2022/01/07 20:49:30;;;;;;;404.38;131.28;;;;;;;0.81;86.28;100173.55;740326;1155;115084;-74
2022/01/07 21:04:32;;;;;;;598.00;172.40;;;;;;;0.87;86.96;100174.98;740389;1157;114684;-73
2022/01/07 21:19:35;;;;;;;139.68;51.60;;;;;;;0.92;86.73;100162.67;740562;1158;114128;-75
2022/01/07 21:34:38;;;;;;;35.30;14.80;;;;;;;1.03;87.17;100156.97;740553;1162;114037;-74
2022/01/07 21:49:47;;;;;;;28.38;12.40;;;;;;;1.12;86.53;100149.60;741125;1156;113760;-74
2022/01/07 22:05:00;;;;;;;30.18;12.18;;;;;;;1.14;86.65;100142.59;741162;1162;113767;-74
2022/01/07 22:20:08;;;;;;;34.43;13.35;;;;;;;1.12;86.09;100134.09;740964;1157;114397;-77
2022/01/07 22:35:13;;;;;;;26.08;12.40;;;;;;;1.07;86.06;100130.91;740734;1154;113800;-77
2022/01/07 22:50:17;;;;;;;30.70;13.17;;;;;;;0.93;85.68;100117.86;740746;1162;113690;-76
2022/01/07 23:05:24;;;;;;;25.70;12.33;;;;;;;0.87;84.94;100092.33;740801;1162;115125;-75
2022/01/07 23:20:33;;;;;;;29.30;12.35;;;;;;;0.89;85.49;100085.34;739935;1157;113751;-75
2022/01/07 23:35:35;;;;;;;25.20;11.43;;;;;;;1.02;85.45;100075.20;741037;1157;115289;-76
2022/01/07 23:50:38;;;;;;;25.80;10.60;;;;;;;1.10;84.87;100091.16;741016;1155;113749;-77
